createdAt,value
2019-05-16T00:00:22.913Z,2.70
2019-05-16T00:03:14.568Z,2.72
2019-05-16T00:06:05.832Z,2.90
2019-05-16T00:08:55.014Z,3.02
2019-05-16T00:11:43.988Z,3.35
2019-05-16T00:14:33.169Z,3.22
2019-05-16T00:17:24.156Z,2.47
2019-05-16T00:20:13.448Z,2.83
2019-05-16T00:23:02.821Z,2.70
2019-05-16T00:25:53.948Z,2.92
2019-05-16T00:28:43.048Z,3.17
2019-05-16T00:31:31.947Z,2.70
2019-05-16T00:34:21.348Z,3.42
2019-05-16T00:37:14.843Z,2.70
2019-05-16T00:40:08.210Z,2.55
2019-05-16T00:42:58.961Z,2.80
2019-05-16T00:45:48.796Z,2.55
2019-05-16T00:48:38.272Z,2.50
2019-05-16T00:51:28.786Z,2.87
2019-05-16T00:54:20.968Z,2.72
2019-05-16T00:57:11.782Z,2.70
2019-05-16T01:00:01.804Z,2.47
2019-05-16T01:02:55.022Z,2.92
2019-05-16T01:05:45.163Z,2.67
2019-05-16T01:08:34.338Z,2.60
2019-05-16T01:11:27.759Z,2.77
2019-05-16T01:14:18.515Z,2.22
2019-05-16T01:17:08.653Z,2.70
2019-05-16T01:19:58.169Z,2.37
2019-05-16T01:22:49.032Z,2.30
2019-05-16T01:25:38.944Z,2.67
2019-05-16T01:28:28.493Z,2.50
2019-05-16T01:31:19.603Z,2.60
2019-05-16T01:34:08.881Z,2.77
2019-05-16T01:36:59.112Z,2.30
2019-05-16T01:39:48.655Z,2.35
2019-05-16T01:42:38.554Z,2.30
2019-05-16T01:45:28.380Z,2.40
2019-05-16T01:48:19.400Z,2.50
2019-05-16T01:51:09.510Z,2.52
2019-05-16T01:54:00.536Z,2.10
2019-05-16T01:56:50.074Z,2.37
2019-05-16T01:59:39.161Z,2.45
2019-05-16T02:02:28.945Z,2.20
2019-05-16T02:05:18.919Z,2.30
2019-05-16T02:08:09.033Z,2.40
2019-05-16T02:10:58.626Z,2.52
2019-05-16T02:13:48.437Z,2.00
2019-05-16T02:16:38.543Z,2.40
2019-05-16T02:19:27.998Z,2.50
2019-05-16T02:22:17.932Z,2.55
2019-05-16T02:25:08.139Z,2.87
2019-05-16T02:27:59.799Z,2.62
2019-05-16T02:30:51.519Z,2.47
2019-05-16T02:33:40.838Z,2.15
2019-05-16T02:36:31.381Z,2.50
2019-05-16T02:39:22.438Z,2.37
2019-05-16T02:42:13.547Z,2.90
2019-05-16T02:45:03.230Z,2.37
2019-05-16T02:47:54.061Z,2.47
2019-05-16T02:50:44.193Z,2.62
2019-05-16T02:53:34.559Z,3.00
2019-05-16T02:56:23.998Z,2.70
2019-05-16T02:59:13.770Z,2.80
2019-05-16T03:02:03.583Z,2.65
2019-05-16T03:04:53.773Z,2.50
2019-05-16T03:07:47.123Z,2.60
2019-05-16T03:10:34.377Z,2.85
2019-05-16T03:13:24.016Z,2.58
2019-05-16T03:16:13.441Z,2.70
2019-05-16T03:19:04.680Z,2.58
2019-05-16T03:21:55.035Z,2.62
2019-05-16T03:24:45.070Z,2.55
2019-05-16T03:27:34.224Z,2.60
2019-05-16T03:30:25.052Z,2.67
2019-05-16T03:33:24.203Z,2.45
2019-05-16T03:36:14.043Z,2.72
2019-05-16T03:39:01.303Z,2.42
2019-05-16T03:41:50.740Z,2.60
2019-05-16T03:44:41.153Z,2.80
2019-05-16T03:47:34.326Z,2.67
2019-05-16T03:50:26.107Z,2.40
2019-05-16T03:53:16.175Z,3.05
2019-05-16T03:56:06.325Z,2.70
2019-05-16T03:59:01.125Z,2.72
2019-05-16T04:01:51.069Z,2.67
2019-05-16T04:04:41.758Z,2.60
2019-05-16T04:07:31.955Z,2.52
2019-05-16T04:10:21.824Z,2.58
2019-05-16T04:13:11.626Z,2.30
2019-05-16T04:16:02.055Z,2.45
2019-05-16T04:18:52.963Z,2.20
2019-05-16T04:21:44.846Z,2.42
2019-05-16T04:24:34.623Z,2.33
2019-05-16T04:27:24.322Z,2.25
2019-05-16T04:30:15.310Z,2.50
2019-05-16T04:33:04.533Z,3.05
2019-05-16T04:35:54.202Z,2.50
2019-05-16T04:38:46.685Z,2.40
2019-05-16T04:41:35.062Z,3.02
2019-05-16T04:44:24.525Z,2.40
2019-05-16T04:47:13.410Z,2.33
2019-05-16T04:50:02.181Z,2.35
2019-05-16T04:52:51.907Z,2.80
2019-05-16T04:55:42.161Z,2.45
2019-05-16T04:58:31.902Z,2.60
2019-05-16T05:01:21.840Z,2.77
2019-05-16T05:04:15.485Z,2.77
2019-05-16T05:07:04.796Z,2.70
2019-05-16T05:09:54.183Z,2.12
2019-05-16T05:12:42.855Z,2.55
2019-05-16T05:15:32.369Z,2.10
2019-05-16T05:18:21.936Z,2.55
2019-05-16T05:21:11.810Z,2.55
2019-05-16T05:24:02.075Z,2.55
2019-05-16T05:26:54.257Z,3.00
2019-05-16T05:29:44.104Z,2.65
2019-05-16T05:32:33.923Z,2.83
2019-05-16T05:35:23.420Z,2.60
2019-05-16T05:38:12.394Z,2.62
2019-05-16T05:41:02.221Z,2.45
2019-05-16T05:43:54.371Z,2.12
2019-05-16T05:46:42.781Z,2.50
2019-05-16T05:49:31.863Z,2.62
2019-05-16T05:52:25.059Z,2.47
2019-05-16T05:55:13.743Z,2.40
2019-05-16T05:58:04.332Z,2.30
2019-05-16T06:00:53.956Z,2.42
2019-05-16T06:03:44.582Z,2.35
2019-05-16T06:06:34.191Z,2.45
2019-05-16T06:09:28.258Z,2.87
2019-05-16T06:12:14.187Z,2.40
2019-05-16T06:15:08.780Z,2.45
2019-05-16T06:17:57.039Z,2.50
2019-05-16T06:20:50.848Z,2.62
2019-05-16T06:23:40.277Z,2.52
2019-05-16T06:26:30.416Z,2.37
2019-05-16T06:29:21.255Z,2.58
2019-05-16T06:32:10.881Z,2.62
2019-05-16T06:35:00.647Z,2.27
2019-05-16T06:37:50.112Z,2.35
2019-05-16T06:40:40.176Z,2.42
2019-05-16T06:43:31.142Z,2.15
2019-05-16T06:46:21.494Z,2.50
2019-05-16T06:49:13.772Z,2.27
2019-05-16T06:52:03.615Z,1.87
2019-05-16T06:54:54.003Z,2.00
2019-05-16T06:57:43.463Z,2.25
2019-05-16T07:00:33.473Z,2.15
2019-05-16T07:03:26.067Z,2.45
2019-05-16T07:06:36.026Z,2.05
2019-05-16T07:09:06.914Z,2.30
2019-05-16T07:11:57.004Z,1.92
2019-05-16T07:14:46.252Z,1.82
2019-05-16T07:17:35.621Z,1.80
2019-05-16T07:20:25.846Z,1.65
2019-05-16T07:23:15.799Z,1.80
2019-05-16T07:26:04.993Z,1.90
2019-05-16T07:28:54.123Z,2.30
2019-05-16T07:31:43.754Z,1.77
2019-05-16T07:34:35.944Z,1.90
2019-05-16T07:37:25.096Z,1.60
2019-05-16T07:40:19.665Z,1.70
2019-05-16T07:43:06.074Z,1.62
2019-05-16T07:45:55.957Z,1.60
2019-05-16T07:48:45.725Z,1.90
2019-05-16T07:51:35.902Z,1.52
2019-05-16T07:54:27.618Z,1.42
2019-05-16T07:57:20.455Z,1.70
2019-05-16T08:00:09.625Z,1.65
2019-05-16T08:03:00.055Z,1.90
2019-05-16T08:05:51.408Z,1.92
2019-05-16T08:08:41.483Z,1.80
2019-05-16T08:11:31.275Z,1.52
2019-05-16T08:14:22.651Z,1.77
2019-05-16T08:17:12.360Z,1.52
2019-05-16T08:20:03.031Z,1.70
2019-05-16T08:22:53.078Z,1.50
2019-05-16T08:25:43.310Z,1.57
2019-05-16T08:28:33.410Z,1.65
2019-05-16T08:31:23.194Z,1.50
2019-05-16T08:34:13.442Z,1.55
2019-05-16T08:37:30.642Z,1.60
2019-05-16T08:40:00.518Z,1.37
2019-05-16T08:42:51.990Z,1.40
2019-05-16T08:45:41.945Z,1.65
2019-05-16T08:48:32.139Z,1.25
2019-05-16T08:51:23.682Z,1.15
2019-05-16T08:54:16.209Z,1.30
2019-05-16T08:57:25.474Z,1.50
2019-05-16T09:00:02.668Z,1.20
2019-05-16T09:02:52.881Z,1.32
2019-05-16T09:05:43.151Z,1.17
2019-05-16T09:08:33.227Z,1.17
2019-05-16T09:11:35.504Z,1.07
2019-05-16T09:14:18.225Z,1.25
2019-05-16T09:17:08.483Z,1.12
2019-05-16T09:19:58.382Z,1.12
2019-05-16T09:22:50.905Z,1.40
2019-05-16T09:25:40.258Z,1.27
2019-05-16T09:28:30.011Z,1.30
2019-05-16T09:31:20.293Z,1.20
2019-05-16T09:34:09.823Z,1.10
2019-05-16T09:37:01.482Z,1.10
2019-05-16T09:39:51.775Z,1.30
2019-05-16T09:42:42.541Z,1.40
2019-05-16T09:45:33.217Z,1.15
2019-05-16T09:48:23.492Z,1.20
2019-05-16T09:51:12.879Z,1.07
2019-05-16T09:54:02.324Z,1.00
2019-05-16T09:56:51.690Z,1.17
2019-05-16T09:59:41.816Z,1.30
2019-05-16T10:02:31.485Z,1.40
2019-05-16T10:05:21.844Z,1.30
2019-05-16T10:08:11.574Z,1.37
2019-05-16T10:11:01.502Z,1.30
2019-05-16T10:13:50.446Z,1.35
2019-05-16T10:16:40.373Z,1.30
2019-05-16T10:19:29.810Z,1.15
2019-05-16T10:22:21.243Z,1.20
2019-05-16T10:25:10.664Z,1.37
2019-05-16T10:27:59.856Z,1.30
2019-05-16T10:30:50.070Z,1.90
2019-05-16T10:33:42.230Z,1.17
2019-05-16T10:36:32.886Z,1.07
2019-05-16T10:39:23.998Z,1.00
2019-05-16T10:42:27.207Z,1.15
2019-05-16T10:45:08.657Z,1.40
2019-05-16T10:47:58.401Z,1.05
2019-05-16T10:50:48.013Z,1.20
2019-05-16T10:54:01.037Z,1.10
2019-05-16T10:56:29.666Z,1.35
2019-05-16T11:02:13.879Z,1.05
2019-05-16T11:05:22.436Z,0.90
2019-05-16T11:07:58.704Z,1.25
2019-05-16T11:10:50.514Z,1.22
2019-05-16T11:13:41.715Z,1.25
2019-05-16T11:16:31.033Z,1.30
2019-05-16T11:19:24.459Z,1.20
2019-05-16T11:22:12.072Z,1.40
2019-05-16T11:25:01.799Z,1.35
2019-05-16T11:27:57.412Z,1.37
2019-05-16T11:30:51.720Z,1.47
2019-05-16T11:33:47.706Z,1.52
2019-05-16T11:36:38.844Z,1.20
2019-05-16T11:39:28.405Z,1.50
2019-05-16T11:42:20.003Z,1.67
2019-05-16T11:45:10.916Z,1.55
2019-05-16T11:48:02.658Z,1.52
2019-05-16T11:50:52.148Z,1.60
2019-05-16T11:53:44.183Z,1.60
2019-05-16T11:56:33.993Z,1.42
2019-05-16T11:59:23.251Z,1.40
2019-05-16T12:02:12.450Z,1.62
2019-05-16T12:05:01.773Z,1.57
2019-05-16T12:07:52.167Z,1.30
2019-05-16T12:10:41.146Z,1.50
2019-05-16T12:13:32.942Z,1.37
2019-05-16T12:16:24.108Z,1.37
2019-05-16T12:19:14.606Z,1.42
2019-05-16T12:22:03.698Z,1.60
2019-05-16T12:24:53.840Z,1.20
2019-05-16T12:27:43.132Z,1.15
2019-05-16T12:30:33.156Z,1.10
2019-05-16T12:33:22.977Z,1.10
2019-05-16T12:36:13.193Z,1.20
2019-05-16T12:39:04.613Z,1.00
2019-05-16T12:41:58.993Z,1.00
2019-05-16T12:44:50.986Z,0.98
2019-05-16T12:47:43.245Z,1.00
2019-05-16T12:50:32.741Z,1.00
2019-05-16T12:53:23.607Z,1.20
2019-05-16T12:56:13.211Z,1.20
2019-05-16T12:59:02.624Z,1.60
2019-05-16T13:01:52.021Z,1.30
2019-05-16T13:04:41.944Z,1.17
2019-05-16T13:07:31.732Z,1.40
2019-05-16T13:10:20.985Z,1.25
2019-05-16T13:13:10.890Z,1.50
2019-05-16T13:16:01.923Z,1.37
2019-05-16T13:18:51.258Z,1.30
2019-05-16T13:21:42.065Z,1.50
2019-05-16T13:24:32.055Z,1.60
2019-05-16T13:27:23.413Z,1.50
2019-05-16T13:30:14.186Z,1.60
2019-05-16T13:33:07.330Z,1.67
2019-05-16T13:35:57.816Z,1.75
2019-05-16T13:38:47.980Z,2.02
2019-05-16T13:41:40.961Z,1.80
2019-05-16T13:44:30.541Z,1.50
2019-05-16T13:47:20.820Z,1.57
2019-05-16T13:50:12.728Z,2.02
2019-05-16T13:53:02.528Z,1.67
2019-05-16T13:55:54.797Z,2.17
2019-05-16T13:58:46.985Z,1.98
2019-05-16T14:01:37.229Z,1.80
2019-05-16T14:04:30.256Z,2.00
2019-05-16T14:07:20.364Z,2.25
2019-05-16T14:10:17.845Z,2.25
2019-05-16T14:13:07.458Z,1.90
2019-05-16T14:15:57.377Z,1.75
2019-05-16T14:18:46.944Z,2.52
2019-05-16T14:21:36.021Z,2.30
2019-05-16T14:24:28.141Z,2.22
2019-05-16T14:27:17.279Z,1.90
2019-05-16T14:30:08.506Z,2.10
2019-05-16T14:33:01.612Z,1.98
2019-05-16T14:35:49.151Z,2.20
2019-05-16T14:38:40.685Z,1.90
2019-05-16T14:41:37.221Z,2.55
2019-05-16T14:44:28.580Z,1.82
2019-05-16T14:47:21.707Z,2.00
2019-05-16T14:50:13.924Z,2.45
2019-05-16T14:53:03.067Z,1.98
2019-05-16T14:55:54.215Z,2.35
2019-05-16T14:58:48.171Z,2.40
2019-05-16T15:01:37.746Z,2.02
2019-05-16T15:04:30.178Z,1.90
2019-05-16T15:07:23.411Z,2.47
2019-05-16T15:10:12.602Z,2.50
2019-05-16T15:13:04.041Z,2.80
2019-05-16T15:15:57.003Z,2.08
2019-05-16T15:18:54.183Z,2.10
2019-05-16T15:21:47.673Z,2.33
2019-05-16T15:24:37.220Z,2.50
2019-05-16T15:27:26.939Z,2.20
2019-05-16T15:30:17.174Z,2.22
2019-05-16T15:33:08.463Z,2.15
2019-05-16T15:35:58.817Z,2.40
2019-05-16T15:38:48.213Z,2.10
2019-05-16T15:41:37.456Z,2.17
2019-05-16T15:44:27.399Z,2.20
2019-05-16T15:47:19.173Z,2.80
2019-05-16T15:50:09.927Z,2.37
2019-05-16T15:52:59.337Z,2.50
2019-05-16T15:55:48.951Z,2.25
2019-05-16T15:58:38.434Z,2.55
2019-05-16T16:01:28.033Z,2.20
2019-05-16T16:04:18.187Z,2.17
2019-05-16T16:07:07.903Z,2.02
2019-05-16T16:10:07.070Z,2.00
2019-05-16T16:13:00.210Z,1.65
2019-05-16T16:15:54.449Z,1.80
2019-05-16T16:18:46.689Z,1.98
2019-05-16T16:21:37.766Z,2.12
2019-05-16T16:24:28.344Z,2.35
2019-05-16T16:27:19.638Z,2.00
2019-05-16T16:30:09.592Z,2.15
2019-05-16T16:32:59.452Z,1.80
2019-05-16T16:35:48.842Z,1.85
2019-05-16T16:38:38.808Z,2.20
2019-05-16T16:41:29.143Z,2.00
2019-05-16T16:44:20.006Z,2.40
2019-05-16T16:47:09.786Z,2.00
2019-05-16T16:50:01.205Z,2.27
2019-05-16T16:52:50.518Z,2.15
2019-05-16T16:55:40.049Z,2.55
2019-05-16T16:58:29.134Z,2.40
2019-05-16T17:01:18.307Z,2.42
2019-05-16T17:04:17.465Z,2.33
2019-05-16T17:07:07.740Z,2.17
2019-05-16T17:09:59.529Z,2.75
2019-05-16T17:12:50.689Z,2.70
2019-05-16T17:15:42.175Z,2.60
2019-05-16T17:18:31.073Z,2.90
2019-05-16T17:21:23.419Z,2.30
2019-05-16T17:24:13.240Z,2.67
2019-05-16T17:27:03.973Z,3.27
2019-05-16T17:30:00.817Z,2.70
2019-05-16T17:32:51.272Z,2.60
2019-05-16T17:35:41.131Z,2.47
2019-05-16T17:38:30.989Z,2.50
2019-05-16T17:41:20.464Z,2.25
2019-05-16T17:44:10.187Z,1.70
2019-05-16T17:47:07.405Z,2.30
2019-05-16T17:49:57.684Z,1.92
2019-05-16T17:52:47.897Z,2.27
2019-05-16T17:55:37.423Z,2.20
2019-05-16T17:58:27.186Z,1.87
2019-05-16T18:01:17.075Z,1.75
2019-05-16T18:04:17.241Z,2.10
2019-05-16T18:07:07.323Z,1.82
2019-05-16T18:09:57.744Z,1.82
2019-05-16T18:12:48.105Z,1.95
2019-05-16T18:15:37.877Z,2.00
2019-05-16T18:18:28.139Z,1.90
2019-05-16T18:21:17.234Z,2.12
2019-05-16T18:24:06.864Z,1.72
2019-05-16T18:26:57.115Z,1.72
2019-05-16T18:29:47.106Z,1.98
2019-05-16T18:32:37.434Z,1.57
2019-05-16T18:35:27.908Z,1.52
2019-05-16T18:38:19.488Z,1.60
2019-05-16T18:41:10.015Z,1.47
2019-05-16T18:44:03.384Z,1.62
2019-05-16T18:47:04.856Z,1.50
2019-05-16T18:49:47.341Z,1.47
2019-05-16T18:52:37.492Z,1.95
2019-05-16T18:55:27.576Z,1.55
2019-05-16T18:58:17.947Z,1.60
2019-05-16T19:01:07.915Z,1.27
2019-05-16T19:03:57.831Z,1.60
2019-05-16T19:06:47.690Z,1.42
2019-05-16T19:09:37.492Z,1.30
2019-05-16T19:12:27.372Z,1.98
2019-05-16T19:15:17.989Z,1.57
2019-05-16T19:18:08.908Z,1.52
2019-05-16T19:20:59.303Z,1.50
2019-05-16T19:23:49.036Z,1.65
2019-05-16T19:26:46.779Z,1.90
2019-05-16T19:29:36.849Z,1.50
2019-05-16T19:32:30.176Z,1.47
2019-05-16T19:35:20.685Z,1.67
2019-05-16T19:38:11.703Z,1.70
2019-05-16T19:41:02.317Z,1.85
2019-05-16T19:43:52.207Z,2.05
2019-05-16T19:46:42.527Z,1.42
2019-05-16T19:49:33.758Z,1.52
2019-05-16T19:52:29.306Z,1.60
2019-05-16T19:55:17.225Z,1.67
2019-05-16T19:58:07.215Z,1.60
2019-05-16T20:00:57.462Z,1.70
2019-05-16T20:03:47.373Z,1.92
2019-05-16T20:06:38.657Z,1.50
2019-05-16T20:09:30.265Z,1.92
2019-05-16T20:12:19.878Z,1.82
2019-05-16T20:15:11.806Z,1.57
2019-05-16T20:18:01.318Z,1.85
2019-05-16T20:20:50.557Z,2.02
2019-05-16T20:23:40.768Z,2.35
2019-05-16T20:26:31.100Z,1.82
2019-05-16T20:29:20.881Z,1.60
2019-05-16T20:32:11.580Z,1.82
2019-05-16T20:35:01.685Z,1.60
2019-05-16T20:37:52.199Z,1.92
2019-05-16T20:40:42.158Z,1.50
2019-05-16T20:43:32.041Z,1.70
2019-05-16T20:46:22.200Z,1.72
2019-05-16T20:49:11.462Z,1.80
2019-05-16T20:52:02.758Z,1.75
2019-05-16T20:54:57.766Z,1.77
2019-05-16T20:57:49.955Z,1.70
2019-05-16T21:00:40.351Z,1.80
2019-05-16T21:03:29.819Z,1.80
2019-05-16T21:06:19.498Z,1.30
2019-05-16T21:09:09.941Z,1.47
2019-05-16T21:11:59.778Z,1.60
2019-05-16T21:14:49.992Z,1.50
2019-05-16T21:17:39.808Z,1.50
2019-05-16T21:20:30.045Z,1.70
2019-05-16T21:23:20.082Z,1.60
2019-05-16T21:26:09.513Z,1.70
2019-05-16T21:28:59.340Z,1.42
2019-05-16T21:31:49.011Z,1.50
2019-05-16T21:34:38.702Z,1.50
2019-05-16T21:37:31.470Z,1.75
2019-05-16T21:40:23.314Z,1.55
2019-05-16T21:43:13.060Z,1.30
2019-05-16T21:46:07.286Z,1.72
2019-05-16T21:48:58.054Z,1.47
2019-05-16T21:51:50.405Z,2.00
2019-05-16T21:54:42.665Z,1.32
2019-05-16T21:57:37.496Z,1.60
2019-05-16T22:00:38.582Z,1.75
2019-05-16T22:03:28.013Z,2.00
2019-05-16T22:06:18.450Z,1.60
2019-05-16T22:09:09.145Z,1.87
2019-05-16T22:11:58.768Z,1.77
2019-05-16T22:14:53.245Z,1.75
2019-05-16T22:17:49.178Z,1.70
2019-05-16T22:20:41.571Z,1.70
2019-05-16T22:23:31.505Z,2.00
2019-05-16T22:26:21.992Z,2.05
2019-05-16T22:29:12.263Z,1.60
2019-05-16T22:32:01.844Z,2.02
2019-05-16T22:34:51.604Z,2.15
2019-05-16T22:37:52.056Z,1.90
2019-05-16T22:40:33.373Z,2.17
2019-05-16T22:43:23.244Z,2.08
2019-05-16T22:46:13.333Z,1.85
2019-05-16T22:49:02.926Z,2.27
2019-05-16T22:51:52.458Z,1.90
2019-05-16T22:54:42.066Z,2.05
2019-05-16T22:57:30.916Z,2.05
2019-05-16T23:00:26.587Z,2.25
2019-05-16T23:03:17.377Z,2.10
2019-05-16T23:06:07.821Z,2.25
2019-05-16T23:08:58.565Z,2.58
2019-05-16T23:11:48.821Z,2.60
2019-05-16T23:14:39.397Z,2.70
2019-05-16T23:17:30.568Z,2.92
2019-05-16T23:20:20.041Z,3.40
2019-05-16T23:23:09.968Z,3.50
2019-05-16T23:25:59.254Z,3.30
2019-05-16T23:28:56.525Z,3.20
2019-05-16T23:31:47.164Z,3.08
2019-05-16T23:34:38.987Z,3.42
2019-05-16T23:37:28.996Z,3.75
2019-05-16T23:40:18.369Z,3.40
2019-05-16T23:43:09.642Z,3.92
2019-05-16T23:45:59.599Z,3.85
2019-05-16T23:48:49.020Z,3.90
2019-05-16T23:51:41.115Z,3.87
2019-05-16T23:54:31.754Z,3.95
2019-05-16T23:57:21.509Z,3.80
